createdAt,value
2019-01-08T00:00:07.390Z,2.90
2019-01-08T00:02:37.585Z,2.60
2019-01-08T00:05:07.459Z,3.00
2019-01-08T00:07:37.734Z,3.17
2019-01-08T00:10:07.632Z,2.67
2019-01-08T00:12:37.732Z,2.00
2019-01-08T00:15:07.680Z,2.47
2019-01-08T00:17:38.120Z,1.90
2019-01-08T00:20:08.330Z,1.80
2019-01-08T00:22:38.210Z,2.77
2019-01-08T00:25:08.824Z,1.90
2019-01-08T00:27:38.771Z,2.70
2019-01-08T00:30:08.674Z,2.20
2019-01-08T00:32:38.593Z,2.50
2019-01-08T00:35:08.461Z,2.07
2019-01-08T00:37:38.380Z,2.30
2019-01-08T00:40:08.372Z,2.40
2019-01-08T00:42:38.309Z,2.90
2019-01-08T00:45:08.212Z,2.83
2019-01-08T00:47:38.151Z,3.30
2019-01-08T00:50:08.481Z,3.53
2019-01-08T00:52:38.361Z,2.60
2019-01-08T00:55:08.273Z,2.60
2019-01-08T00:57:38.308Z,2.17
2019-01-08T01:00:09.173Z,2.40
2019-01-08T01:02:39.046Z,2.87
2019-01-08T01:05:08.944Z,3.07
2019-01-08T01:07:38.882Z,2.90
2019-01-08T01:10:09.087Z,3.10
2019-01-08T01:12:38.930Z,3.20
2019-01-08T01:15:08.815Z,4.30
2019-01-08T01:17:38.649Z,3.53
2019-01-08T01:20:08.512Z,4.13
2019-01-08T01:22:38.452Z,2.93
2019-01-08T01:25:08.692Z,3.73
2019-01-08T01:27:38.930Z,3.83
2019-01-08T01:30:08.932Z,3.53
2019-01-08T01:32:38.892Z,3.20
2019-01-08T01:35:08.910Z,3.80
2019-01-08T01:37:38.868Z,3.10
2019-01-08T01:40:08.837Z,3.00
2019-01-08T01:42:38.831Z,3.37
2019-01-08T01:45:08.862Z,3.23
2019-01-08T01:47:38.734Z,3.67
2019-01-08T01:50:08.580Z,3.70
2019-01-08T01:52:38.471Z,3.60
2019-01-08T01:55:08.482Z,3.30
2019-01-08T01:57:39.349Z,3.77
2019-01-08T02:00:10.125Z,3.77
2019-01-08T02:02:40.275Z,3.20
2019-01-08T02:05:10.147Z,3.30
2019-01-08T02:07:40.025Z,3.80
2019-01-08T02:10:10.567Z,3.83
2019-01-08T02:12:40.526Z,4.17
2019-01-08T02:15:10.464Z,3.67
2019-01-08T02:17:40.458Z,3.57
2019-01-08T02:20:10.389Z,4.20
2019-01-08T02:22:40.283Z,4.30
2019-01-08T02:25:10.242Z,4.07
2019-01-08T02:27:40.177Z,4.70
2019-01-08T02:30:10.235Z,4.63
2019-01-08T02:32:40.578Z,3.37
2019-01-08T02:35:10.574Z,4.03
2019-01-08T02:37:40.525Z,4.33
2019-01-08T02:40:10.722Z,4.33
2019-01-08T02:42:40.728Z,4.30
2019-01-08T02:45:10.598Z,4.23
2019-01-08T02:47:40.936Z,4.80
2019-01-08T02:50:10.874Z,4.73
2019-01-08T02:52:40.846Z,3.80
2019-01-08T02:55:11.028Z,5.80
2019-01-08T02:57:41.080Z,3.90
2019-01-08T03:00:11.250Z,4.70
2019-01-08T03:02:42.217Z,3.53
2019-01-08T03:05:12.078Z,3.10
2019-01-08T03:07:42.066Z,3.67
2019-01-08T03:10:13.337Z,3.83
2019-01-08T03:12:43.292Z,3.30
2019-01-08T03:15:13.190Z,3.70
2019-01-08T03:17:43.161Z,3.50
2019-01-08T03:20:13.033Z,2.70
2019-01-08T03:22:42.904Z,2.50
2019-01-08T03:25:12.768Z,3.30
2019-01-08T03:27:42.710Z,2.57
2019-01-08T03:30:12.715Z,2.57
2019-01-08T03:32:42.677Z,3.37
2019-01-08T03:35:12.694Z,3.30
2019-01-08T03:37:42.572Z,2.90
2019-01-08T03:40:12.489Z,3.10
2019-01-08T03:42:42.372Z,4.13
2019-01-08T03:45:12.328Z,3.63
2019-01-08T03:47:42.210Z,3.50
2019-01-08T03:50:12.053Z,3.67
2019-01-08T03:52:42.368Z,3.70
2019-01-08T03:55:12.359Z,4.07
2019-01-08T03:57:42.615Z,4.13
2019-01-08T04:00:13.332Z,3.73
2019-01-08T04:02:43.298Z,5.50
2019-01-08T04:05:13.265Z,3.17
2019-01-08T04:07:43.485Z,3.87
2019-01-08T04:13:03.211Z,3.57
2019-01-08T04:15:33.042Z,3.63
2019-01-08T04:18:02.948Z,4.10
2019-01-08T04:20:32.843Z,3.80
2019-01-08T04:23:02.708Z,3.80
2019-01-08T04:25:32.623Z,3.50
2019-01-08T04:28:02.614Z,3.33
2019-01-08T04:30:32.470Z,3.90
2019-01-08T04:33:02.303Z,4.60
2019-01-08T04:35:32.207Z,3.10
2019-01-08T04:38:02.168Z,3.80
2019-01-08T04:40:32.137Z,3.47
2019-01-08T04:43:02.097Z,4.03
2019-01-08T04:45:31.958Z,3.60
2019-01-08T04:48:02.562Z,3.80
2019-01-08T04:50:32.491Z,3.17
2019-01-08T04:53:02.361Z,3.87
2019-01-08T04:55:32.298Z,2.70
2019-01-08T04:58:02.234Z,4.03
2019-01-08T05:00:32.097Z,5.00
2019-01-08T05:03:01.938Z,4.00
2019-01-08T05:05:31.879Z,3.50
2019-01-08T05:08:01.841Z,3.13
2019-01-08T05:10:31.720Z,3.03
2019-01-08T05:13:01.697Z,2.90
2019-01-08T05:15:31.561Z,3.07
2019-01-08T05:18:01.493Z,3.73
2019-01-08T05:20:31.587Z,4.20
2019-01-08T05:23:01.439Z,3.67
2019-01-08T05:25:31.312Z,4.00
2019-01-08T05:28:01.273Z,3.17
2019-01-08T05:30:31.214Z,3.27
2019-01-08T05:33:01.183Z,4.57
2019-01-08T05:35:31.076Z,3.83
2019-01-08T05:38:01.121Z,3.60
2019-01-08T05:40:31.067Z,2.80
2019-01-08T05:43:01.043Z,3.00
2019-01-08T05:45:30.912Z,3.20
2019-01-08T05:48:00.795Z,3.03
2019-01-08T05:50:30.670Z,2.60
2019-01-08T05:53:00.621Z,2.50
2019-01-08T05:55:30.482Z,2.43
2019-01-08T05:58:00.350Z,2.87
2019-01-08T06:00:30.321Z,2.33
2019-01-08T06:03:00.344Z,5.33
2019-01-08T06:05:30.303Z,3.10
2019-01-08T06:08:00.255Z,2.67
2019-01-08T06:10:30.223Z,2.90
2019-01-08T06:13:00.114Z,2.23
2019-01-08T06:15:29.988Z,3.10
2019-01-08T06:17:59.876Z,2.90
2019-01-08T06:20:29.836Z,2.80
2019-01-08T06:22:59.682Z,2.60
2019-01-08T06:25:29.655Z,4.43
2019-01-08T06:27:59.543Z,2.30
2019-01-08T06:30:29.494Z,2.63
2019-01-08T06:32:59.440Z,2.43
2019-01-08T06:35:29.405Z,2.90
2019-01-08T06:37:59.254Z,2.47
2019-01-08T06:40:29.124Z,2.90
2019-01-08T06:42:59.043Z,2.50
2019-01-08T06:45:29.011Z,2.57
2019-01-08T06:47:58.897Z,2.50
2019-01-08T06:50:28.791Z,3.30
2019-01-08T06:52:58.793Z,2.27
2019-01-08T06:55:28.673Z,2.43
2019-01-08T06:57:58.562Z,2.07
2019-01-08T07:00:33.282Z,2.47
2019-01-08T07:02:59.998Z,1.93
2019-01-08T07:05:29.859Z,2.20
2019-01-08T07:07:59.795Z,2.30
2019-01-08T07:10:29.736Z,2.40
2019-01-08T07:12:59.718Z,2.63
2019-01-08T07:15:29.606Z,3.03
2019-01-08T07:17:59.498Z,3.00
2019-01-08T07:20:29.530Z,3.60
2019-01-08T07:22:59.408Z,3.90
2019-01-08T07:25:29.356Z,3.13
2019-01-08T07:27:59.360Z,3.00
2019-01-08T07:30:29.307Z,2.90
2019-01-08T07:32:59.184Z,3.27
2019-01-08T07:35:29.130Z,3.13
2019-01-08T07:37:59.184Z,3.07
2019-01-08T07:40:29.096Z,4.77
2019-01-08T07:42:58.992Z,3.50
2019-01-08T07:45:29.035Z,3.40
2019-01-08T07:47:59.054Z,4.03
2019-01-08T07:50:28.963Z,3.17
2019-01-08T07:52:58.855Z,3.20
2019-01-08T07:55:28.717Z,3.10
2019-01-08T07:57:58.732Z,3.40
2019-01-08T08:00:28.767Z,2.60
2019-01-08T08:02:58.815Z,3.00
2019-01-08T08:05:28.747Z,4.47
2019-01-08T08:07:58.698Z,4.20
2019-01-08T08:10:28.728Z,2.77
2019-01-08T08:12:58.684Z,2.73
2019-01-08T08:15:29.667Z,2.50
2019-01-08T08:18:00.572Z,3.00
2019-01-08T08:20:30.531Z,2.83
2019-01-08T08:23:00.455Z,5.23
2019-01-08T08:25:30.461Z,3.70
2019-01-08T08:28:00.378Z,3.33
2019-01-08T08:30:30.314Z,4.00
2019-01-08T08:33:00.512Z,3.83
2019-01-08T08:35:30.442Z,2.63
2019-01-08T08:38:00.424Z,2.60
2019-01-08T08:40:30.745Z,3.70
2019-01-08T08:43:00.657Z,2.70
2019-01-08T08:45:30.571Z,2.97
2019-01-08T08:48:00.450Z,3.90
2019-01-08T08:50:30.421Z,2.70
2019-01-08T08:53:00.513Z,2.97
2019-01-08T08:55:30.505Z,3.70
2019-01-08T08:58:00.636Z,3.00
2019-01-08T09:00:30.589Z,3.17
2019-01-08T09:03:00.532Z,2.03
2019-01-08T09:05:30.485Z,2.90
2019-01-08T09:08:02.545Z,2.70
2019-01-08T09:10:32.505Z,2.77
2019-01-08T09:13:02.560Z,2.37
2019-01-08T09:15:33.817Z,2.70
2019-01-08T09:18:03.772Z,3.60
2019-01-08T09:20:33.649Z,3.30
2019-01-08T09:23:03.535Z,2.50
2019-01-08T09:25:33.411Z,2.33
2019-01-08T09:28:03.330Z,3.20
2019-01-08T09:30:33.521Z,2.37
2019-01-08T09:33:03.390Z,2.70
2019-01-08T09:35:33.489Z,2.50
2019-01-08T09:38:03.372Z,2.50
2019-01-08T09:40:33.352Z,2.23
2019-01-08T09:43:03.463Z,3.00
2019-01-08T09:45:33.764Z,2.47
2019-01-08T09:48:03.761Z,2.87
2019-01-08T09:50:38.054Z,2.47
2019-01-08T09:53:08.240Z,1.90
2019-01-08T09:55:38.245Z,4.00
2019-01-08T09:58:09.280Z,2.23
2019-01-08T10:00:39.481Z,1.97
2019-01-08T10:03:09.578Z,2.57
2019-01-08T10:05:39.456Z,2.43
2019-01-08T10:08:09.874Z,2.00
2019-01-08T10:10:40.879Z,2.00
2019-01-08T10:13:11.132Z,1.97
2019-01-08T10:15:41.076Z,1.80
2019-01-08T10:18:11.288Z,1.73
2019-01-08T10:20:41.250Z,1.87
2019-01-08T10:23:11.271Z,1.90
2019-01-08T10:25:41.238Z,1.60
2019-01-08T10:28:11.242Z,1.47
2019-01-08T10:30:41.180Z,1.27
2019-01-08T10:33:11.101Z,1.20
2019-01-08T10:35:41.588Z,1.43
2019-01-08T10:38:11.414Z,1.30
2019-01-08T10:40:41.433Z,1.83
2019-01-08T10:43:11.340Z,1.20
2019-01-08T10:45:41.684Z,1.50
2019-01-08T10:48:11.680Z,1.50
2019-01-08T10:50:41.652Z,2.20
2019-01-08T10:53:11.766Z,1.70
2019-01-08T10:55:41.795Z,3.03
2019-01-08T10:58:11.736Z,1.30
2019-01-08T11:00:41.694Z,1.93
2019-01-08T11:03:11.595Z,1.50
2019-01-08T11:05:41.563Z,1.70
2019-01-08T11:08:11.585Z,1.80
2019-01-08T11:10:41.523Z,2.00
2019-01-08T11:13:11.392Z,1.93
2019-01-08T11:15:41.361Z,1.60
2019-01-08T11:18:11.346Z,1.50
2019-01-08T11:20:41.212Z,1.40
2019-01-08T11:23:11.082Z,1.80
2019-01-08T11:25:40.941Z,1.40
2019-01-08T11:28:10.805Z,1.60
2019-01-08T11:30:40.688Z,1.60
2019-01-08T11:33:10.541Z,2.00
2019-01-08T11:35:42.340Z,1.90
2019-01-08T11:38:12.003Z,1.70
2019-01-08T11:40:41.944Z,1.73
2019-01-08T11:43:11.877Z,2.30
2019-01-08T11:45:41.778Z,1.40
2019-01-08T11:48:11.772Z,1.60
2019-01-08T11:50:41.757Z,1.40
2019-01-08T11:53:11.680Z,2.03
2019-01-08T11:55:41.579Z,1.73
2019-01-08T11:58:11.437Z,1.63
2019-01-08T12:00:41.399Z,1.57
2019-01-08T12:03:11.372Z,2.90
2019-01-08T12:05:41.234Z,1.70
2019-01-08T12:08:11.283Z,1.50
2019-01-08T12:10:42.416Z,4.97
2019-01-08T12:13:12.295Z,1.87
2019-01-08T12:15:42.151Z,1.43
2019-01-08T12:18:12.027Z,1.33
2019-01-08T12:20:41.969Z,1.43
2019-01-08T12:23:11.907Z,1.30
2019-01-08T12:25:41.901Z,1.63
2019-01-08T12:28:11.852Z,2.27
2019-01-08T12:30:41.796Z,2.20
2019-01-08T12:33:14.220Z,2.23
2019-01-08T12:35:45.702Z,2.20
2019-01-08T12:38:15.710Z,2.87
2019-01-08T12:40:45.642Z,3.53
2019-01-08T12:43:16.131Z,2.40
2019-01-08T12:45:46.716Z,4.03
2019-01-08T12:48:16.719Z,4.40
2019-01-08T12:50:49.203Z,4.00
2019-01-08T12:53:19.881Z,3.90
2019-01-08T12:55:49.802Z,4.97
2019-01-08T12:58:19.848Z,3.97
2019-01-08T13:00:49.692Z,3.60
2019-01-08T13:03:20.175Z,4.70
2019-01-08T13:05:50.650Z,4.80
2019-01-08T13:08:20.551Z,6.77
2019-01-08T13:10:50.513Z,4.80
2019-01-08T13:13:20.463Z,4.07
2019-01-08T13:15:50.399Z,3.70
2019-01-08T13:18:20.367Z,4.20
2019-01-08T13:20:50.243Z,5.00
2019-01-08T13:23:20.221Z,4.73
2019-01-08T13:25:50.227Z,3.80
2019-01-08T13:28:20.302Z,4.03
2019-01-08T13:30:50.277Z,4.20
2019-01-08T13:33:20.346Z,4.67
2019-01-08T13:35:50.300Z,4.70
2019-01-08T13:38:20.184Z,4.83
2019-01-08T13:40:50.233Z,4.87
2019-01-08T13:43:20.366Z,4.53
2019-01-08T13:45:50.238Z,4.53
2019-01-08T13:48:20.202Z,3.90
2019-01-08T13:50:50.261Z,5.40
2019-01-08T13:53:20.167Z,4.30
2019-01-08T13:55:50.076Z,3.50
2019-01-08T13:58:19.964Z,4.27
2019-01-08T14:00:49.891Z,4.50
2019-01-08T14:03:19.859Z,4.10
2019-01-08T14:05:49.773Z,4.53
2019-01-08T14:08:19.661Z,4.57
2019-01-08T14:10:56.413Z,4.37
2019-01-08T14:13:21.371Z,3.97
2019-01-08T14:15:51.316Z,4.43
2019-01-08T14:18:21.281Z,4.97
2019-01-08T14:20:51.222Z,3.83
2019-01-08T14:23:21.190Z,4.37
2019-01-08T14:25:51.095Z,3.57
2019-01-08T14:28:21.049Z,3.03
2019-01-08T14:30:51.131Z,3.60
2019-01-08T14:33:22.585Z,3.17
2019-01-08T14:35:52.542Z,3.53
2019-01-08T14:38:24.716Z,4.60
2019-01-08T14:40:54.227Z,3.17
2019-01-08T14:43:24.198Z,4.33
2019-01-08T14:45:54.148Z,3.50
2019-01-08T14:48:24.912Z,3.37
2019-01-08T14:50:54.969Z,4.93
2019-01-08T14:53:28.028Z,3.70
2019-01-08T14:55:57.950Z,3.93
2019-01-08T14:58:27.973Z,4.20
2019-01-08T15:00:57.926Z,4.00
2019-01-08T15:03:28.146Z,3.73
2019-01-08T15:05:58.331Z,5.53
2019-01-08T15:08:28.247Z,4.20
2019-01-08T15:10:58.181Z,5.50
2019-01-08T15:13:28.974Z,4.13
2019-01-08T15:15:58.926Z,6.73
2019-01-08T15:18:28.885Z,3.97
2019-01-08T15:20:59.091Z,5.10
2019-01-08T15:23:29.002Z,4.90
2019-01-08T15:25:58.877Z,7.90
2019-01-08T15:28:29.529Z,4.13
2019-01-08T15:30:59.898Z,4.13
2019-01-08T15:33:29.817Z,4.40
2019-01-08T15:35:59.821Z,3.27
2019-01-08T15:38:29.946Z,4.73
2019-01-08T15:41:00.976Z,3.97
2019-01-08T15:43:30.951Z,3.03
2019-01-08T15:46:01.276Z,3.63
2019-01-08T15:48:31.397Z,4.00
2019-01-08T15:51:01.270Z,3.17
2019-01-08T15:53:31.301Z,3.87
2019-01-08T15:56:01.592Z,3.80
2019-01-08T15:58:31.864Z,4.07
2019-01-08T16:01:02.853Z,4.23
2019-01-08T16:03:32.824Z,3.60
2019-01-08T16:06:02.802Z,3.80
2019-01-08T16:08:32.886Z,3.10
2019-01-08T16:11:04.408Z,3.60
2019-01-08T16:13:34.346Z,3.13
2019-01-08T16:16:04.381Z,4.47
2019-01-08T16:18:34.364Z,4.60
2019-01-08T16:21:04.635Z,4.07
2019-01-08T16:23:34.624Z,3.87
2019-01-08T16:26:04.484Z,3.00
2019-01-08T16:28:34.339Z,5.03
2019-01-08T16:31:04.231Z,3.60
2019-01-08T16:33:34.173Z,4.40
2019-01-08T16:36:04.066Z,4.63
2019-01-08T16:38:34.017Z,3.93
2019-01-08T16:41:04.036Z,3.73
2019-01-08T16:43:33.911Z,3.77
2019-01-08T16:46:03.790Z,3.50
2019-01-08T16:48:33.669Z,3.10
2019-01-08T16:51:07.826Z,3.70
2019-01-08T16:53:41.539Z,4.07
2019-01-08T16:56:09.566Z,4.80
2019-01-08T16:58:39.620Z,3.00
2019-01-08T17:01:09.619Z,4.23
2019-01-08T17:03:39.654Z,3.17
2019-01-08T17:06:09.708Z,3.97
2019-01-08T17:08:39.585Z,3.50
2019-01-08T17:11:09.550Z,3.70
2019-01-08T17:13:39.570Z,3.07
2019-01-08T17:16:09.604Z,3.47
2019-01-08T17:18:40.255Z,2.50
2019-01-08T17:21:10.139Z,3.57
2019-01-08T17:23:40.200Z,3.63
2019-01-08T17:26:10.114Z,3.53
2019-01-08T17:28:40.372Z,3.13
2019-01-08T17:31:10.417Z,3.10
2019-01-08T17:33:40.376Z,3.33
2019-01-08T17:36:10.321Z,3.20
2019-01-08T17:38:40.333Z,3.43
2019-01-08T17:41:10.240Z,3.60
2019-01-08T17:43:40.506Z,2.87
2019-01-08T17:46:10.548Z,3.20
2019-01-08T17:48:40.499Z,2.73
2019-01-08T17:51:10.516Z,2.90
2019-01-08T17:53:40.464Z,2.83
2019-01-08T17:56:11.097Z,2.47
2019-01-08T17:58:46.096Z,2.53
2019-01-08T18:01:31.065Z,2.37
2019-01-08T18:04:01.664Z,2.53
2019-01-08T18:06:31.582Z,2.37
2019-01-08T18:09:01.612Z,2.13
2019-01-08T18:11:31.465Z,2.43
2019-01-08T18:14:01.620Z,1.83
2019-01-08T18:16:31.709Z,1.77
2019-01-08T18:19:02.105Z,1.93
2019-01-08T18:21:32.169Z,1.60
2019-01-08T18:24:02.413Z,2.17
2019-01-08T18:26:34.280Z,2.27
2019-01-08T18:29:03.920Z,2.10
2019-01-08T18:31:33.809Z,2.00
2019-01-08T18:34:03.986Z,2.53
2019-01-08T18:36:33.861Z,1.73
2019-01-08T18:39:04.719Z,2.80
2019-01-08T18:41:35.274Z,2.30
2019-01-08T18:44:05.340Z,2.10
2019-01-08T18:46:35.390Z,2.00
2019-01-08T18:49:05.630Z,2.13
2019-01-08T18:51:35.605Z,1.80
2019-01-08T18:54:05.859Z,1.90
2019-01-08T18:56:35.776Z,2.53
2019-01-08T18:59:05.779Z,1.93
2019-01-08T19:01:35.739Z,1.90
2019-01-08T19:04:05.667Z,2.00
2019-01-08T19:06:35.707Z,2.20
2019-01-08T19:09:24.558Z,2.30
2019-01-08T19:11:55.755Z,2.13
2019-01-08T19:14:29.264Z,3.60
2019-01-08T19:16:59.285Z,2.20
2019-01-08T19:19:29.241Z,1.90
2019-01-08T19:21:59.162Z,1.87
2019-01-08T19:24:29.129Z,1.67
2019-01-08T19:26:59.075Z,1.80
2019-01-08T19:29:28.969Z,1.80
2019-01-08T19:31:58.893Z,2.27
2019-01-08T19:34:28.929Z,2.07
2019-01-08T19:36:58.818Z,1.93
2019-01-08T19:39:28.990Z,2.33
2019-01-08T19:41:58.909Z,2.20
2019-01-08T19:44:28.980Z,2.57
2019-01-08T19:46:58.931Z,2.30
2019-01-08T19:49:28.806Z,2.90
2019-01-08T19:51:58.883Z,2.00
2019-01-08T19:54:29.081Z,2.80
2019-01-08T19:56:59.642Z,2.23
2019-01-08T19:59:29.655Z,3.33
2019-01-08T20:01:59.699Z,2.43
2019-01-08T20:04:29.743Z,2.10
2019-01-08T20:07:00.793Z,2.50
2019-01-08T20:09:34.181Z,2.23
2019-01-08T20:12:11.273Z,2.37
2019-01-08T20:14:43.379Z,2.20
2019-01-08T20:17:13.260Z,1.70
2019-01-08T20:19:43.397Z,3.30
2019-01-08T20:22:13.647Z,1.90
2019-01-08T20:24:43.650Z,1.83
2019-01-08T20:27:13.668Z,2.17
2019-01-08T20:29:43.710Z,1.70
2019-01-08T20:32:18.919Z,2.03
2019-01-08T20:34:50.166Z,2.70
2019-01-08T20:37:20.139Z,2.07
2019-01-08T20:39:50.229Z,2.00
2019-01-08T20:42:20.164Z,3.00
2019-01-08T20:44:50.344Z,2.30
2019-01-08T20:47:20.376Z,2.77
2019-01-08T20:49:50.653Z,2.50
2019-01-08T20:52:20.695Z,3.10
2019-01-08T20:54:50.898Z,2.53
2019-01-08T20:57:21.710Z,3.20
2019-01-08T20:59:51.723Z,2.47
2019-01-08T21:02:21.609Z,2.40
2019-01-08T21:04:52.276Z,2.47
2019-01-08T21:07:22.576Z,3.73
2019-01-08T21:09:52.592Z,3.00
2019-01-08T21:12:22.545Z,2.30
2019-01-08T21:14:52.701Z,2.57
2019-01-08T21:17:22.669Z,3.80
2019-01-08T21:19:52.626Z,2.23
2019-01-08T21:22:22.620Z,2.10
2019-01-08T21:24:52.489Z,2.10
2019-01-08T21:27:23.765Z,2.40
2019-01-08T21:29:53.900Z,2.33
2019-01-08T21:32:23.888Z,2.30
2019-01-08T21:34:53.847Z,2.57
2019-01-08T21:37:23.789Z,1.77
2019-01-08T21:39:53.797Z,2.10
2019-01-08T21:42:23.696Z,2.43
2019-01-08T21:44:54.945Z,2.03
2019-01-08T21:47:24.981Z,2.67
2019-01-08T21:49:54.937Z,2.20
2019-01-08T21:52:25.459Z,2.03
2019-01-08T21:54:55.489Z,2.10
2019-01-08T21:57:25.421Z,2.23
2019-01-08T21:59:55.984Z,2.47
2019-01-08T22:02:26.027Z,1.60
2019-01-08T22:04:55.901Z,2.47
2019-01-08T22:07:25.878Z,1.90
2019-01-08T22:09:55.832Z,2.10
2019-01-08T22:12:26.285Z,1.73
2019-01-08T22:14:59.104Z,2.30
2019-01-08T22:17:29.661Z,2.53
2019-01-08T22:19:59.696Z,2.03
2019-01-08T22:22:29.600Z,2.57
2019-01-08T22:24:59.633Z,2.03
2019-01-08T22:27:29.649Z,2.00
2019-01-08T22:29:59.664Z,1.70
2019-01-08T22:32:29.626Z,2.30
2019-01-08T22:35:02.264Z,2.30
2019-01-08T22:37:31.175Z,3.00
2019-01-08T22:40:01.209Z,1.87
2019-01-08T22:42:31.174Z,1.90
2019-01-08T22:45:01.166Z,2.30
2019-01-08T22:47:31.182Z,2.30
2019-01-08T22:50:01.137Z,2.43
2019-01-08T22:52:31.151Z,2.33
2019-01-08T22:55:01.143Z,1.97
2019-01-08T22:57:31.310Z,1.87
2019-01-08T23:00:01.200Z,2.03
2019-01-08T23:02:31.069Z,1.73
2019-01-08T23:05:01.005Z,2.13
2019-01-08T23:07:31.112Z,2.37
2019-01-08T23:10:00.961Z,2.20
2019-01-08T23:12:30.956Z,2.17
2019-01-08T23:15:01.000Z,2.07
2019-01-08T23:17:31.341Z,2.00
2019-01-08T23:20:01.336Z,2.30
2019-01-08T23:22:31.410Z,2.10
2019-01-08T23:25:01.366Z,2.13
2019-01-08T23:27:31.325Z,2.60
2019-01-08T23:30:01.301Z,3.07
2019-01-08T23:32:31.216Z,2.13
2019-01-08T23:35:01.064Z,2.33
2019-01-08T23:37:31.041Z,2.00
2019-01-08T23:40:00.992Z,2.40
2019-01-08T23:42:30.862Z,2.17
2019-01-08T23:45:00.765Z,3.23
2019-01-08T23:47:30.650Z,1.70
2019-01-08T23:50:00.695Z,2.00
2019-01-08T23:52:36.367Z,2.40
2019-01-08T23:55:06.559Z,2.10
2019-01-08T23:57:36.775Z,2.23
